CheckWX is a tool to help pilots better visualize weather data.  It is not intended as a substitute for an official pre-flight weather briefing.

10:48:15 UTC

FWKI METAR
Lilongwe International Airport
Lilongwe, Malawi
Current

48 mins ago

FWKI 161000Z 10013KT 9999 BKN030 19/08 Q1027 NOSIG
Observed
Jul-16 @ 10:00 UTC
Wind
  • 100° at 13 KTS
Visibility
10,000+ meters
Flight Rules
MVFR
Cloud Levels
  • Broken at 3,000' AGL
Temperature
19°C / 66°F
Dewpoint
C / 46°F
Humidity
49%
Altimeter
30.32" Hg
Pressure
1026.92 hPa
Previous

2 hours ago

FWKI 160900Z 09011KT 9999 BKN030 19/09 Q1027 NOSIG
Observed
Jul-16 @ 09:00 UTC
Wind
  • 090° at 11 KTS
Visibility
10,000+ meters
Flight Rules
MVFR
Cloud Levels
  • Broken at 3,000' AGL
Temperature
19°C / 66°F
Dewpoint
C / 48°F
Humidity
52%
Altimeter
30.32" Hg
Pressure
1026.92 hPa
Previous

3 hours ago

FWKI 160800Z 10015KT 9999 BKN025 17/09 Q1028 NOSIG
Observed
Jul-16 @ 08:00 UTC
Wind
  • 100° at 15 KTS
Visibility
10,000+ meters
Flight Rules
MVFR
Cloud Levels
  • Broken at 2,500' AGL
Temperature
17°C / 63°F
Dewpoint
C / 48°F
Humidity
59%
Altimeter
30.35" Hg
Pressure
1027.92 hPa